Details From EBOS - Oostende
To EPKK - Balice
Flight Number -
Tags Generated
Created
Modified
Stats Distance 648 nm / 1,201 km
Max Altitude 0 ft / 0 m
Waypoints 4
Social Downloads 1
Likes 0
Share VATSIM

Download

Looking for another format? Having issues loading an existing format? Contact us
Advertisement - Login to hide

Notes

Generated

Route

EBOS GOLAT R1855 EPKK

ID Type Via Altitude Latitude Longitude Leg Dist Tot Dist Heading (true) Name
O EBOS APT - 0 ft / 0 m 51.19832˚ 2.86670˚ - 0 nm - -
GOLAT FIX - 0 ft / 0 m 50.91222˚ 11.93806˚ 342 nm 342 nm 89° / 96° -
R1855 FIX - 0 ft / 0 m 50.07979˚ 19.79965˚ 304 nm 646 nm 96° / 102° -
O EPKK APT - 0 ft / 0 m 50.07540˚ 19.76809˚ 1 nm 648 nm 258° / 258° -

Altitude Profile

Advertisement - Login to hide

Weather


0- 5 10 15 20 25 30 35+ Temperature / ° C

Clouds and Precipitation
Forecast for 2017-12-17 06:00 UTC. Updated an hour ago

Ground ~20,000 ft ~40,000 ft Winds

EBOS

Details ICAO EBOS (OST)
Name Oostende
Region Belgium
Timezone Europe/Brussels (UTC+1.0)
Stats Elevation 13 ft / 4 m (AMSL)
Location 51.199967° 2.875008°
Runways 1
Magnetic Variation 0.590° E

METAR

EBOS 170550Z 31009KT 9999 SCT017 SCT032 05/02 Q1023 NOSIG

Decode

TAF

TAF EBOS 170509Z 1706/1812 31010KT 9999 FEW015 SCT030 BECMG 1709/1711 25009KT BECMG 1715/1717 19011KT TEMPO 1719/1723 4000 RA SCT008 BKN012 BECMG 1723/1801 32016G28KT

Decode

Departure Runways

ID Width Length Bearing (true) Bearing (mag) Surface Threshold Offset Overrun Length
08 148 ft / 45 m 10,515 ft / 3,205 m 76.36° 75.77° Asphalt 984 ft / 300 m 0 ft / 0 m
26 148 ft / 45 m 10,515 ft / 3,205 m 256.39° 255.80° Asphalt 1,362 ft / 415 m 0 ft / 0 m

EPKK

Details ICAO EPKK (KRK)
Name BALICE
Region Poland
Timezone Europe/Warsaw (UTC+1.0)
Stats Elevation 791 ft / 241 m (AMSL)
Location 50.077821° 19.785503°
Runways 1
Magnetic Variation 5.203° E

METAR

EPKK 170600Z VRB02KT 4000 BR SCT046 M02/M03 Q1015 R25/42//95

Decode

TAF

TAF EPKK 170530Z 1706/1806 24004KT 4000 BR BKN033 TEMPO 1706/1709 2000 -SN BR BKN008 PROB40 1706/1707 1200 -SN BR BKN003 TEMPO 1709/1715 8000 TEMPO 1715/1806 2000 -SN BR BKN007 PROB40 1721/1806 0600 FZFG BKN002

Decode

Destination Runways

ID Width Length Bearing (true) Bearing (mag) Surface Threshold Offset Overrun Length
07 197 ft / 60 m 8,343 ft / 2,543 m 77.75° 72.55° Concrete 0 ft / 0 m 0 ft / 0 m
25 197 ft / 60 m 8,343 ft / 2,543 m 257.77° 252.57° Concrete 784 ft / 239 m 0 ft / 0 m

Approach Navaids

Runway Type Ident Frequency Range Bearing (true) Bearing (mag) Slope Elevation
25 Localiser KRW 110.30 MHz 18 nm / 33 km 257.73° 252.53° - 791 ft / 241 m (AMSL)
25 Glidescope KRW 110.30 MHz 10 nm / 19 km 257.76° 252.56° 3.00° 791 ft / 241 m (AMSL)
25 DME KRW 110.30 MHz 18 nm / 33 km - - - 827 ft / 252 m (AMSL)